createdAt,value
2019-03-10T00:00:21.068Z,1.80
2019-03-10T00:03:24.765Z,1.87
2019-03-10T00:06:26.624Z,1.97
2019-03-10T00:09:28.621Z,1.70
2019-03-10T00:12:30.514Z,1.50
2019-03-10T00:15:32.557Z,1.60
2019-03-10T00:18:34.463Z,2.40
2019-03-10T00:21:36.432Z,2.40
2019-03-10T00:24:38.329Z,1.80
2019-03-10T00:27:40.261Z,1.40
2019-03-10T00:30:42.226Z,2.00
2019-03-10T00:33:44.228Z,2.60
2019-03-10T00:36:46.132Z,2.10
2019-03-10T00:40:00.614Z,2.20
2019-03-10T00:43:23.061Z,1.20
2019-03-10T00:46:48.422Z,1.87
2019-03-10T00:50:11.981Z,1.57
2019-03-10T00:53:14.042Z,1.60
2019-03-10T00:56:15.922Z,2.27
2019-03-10T00:59:18.267Z,1.77
2019-03-10T01:02:20.143Z,1.77
2019-03-10T01:05:22.082Z,1.90
2019-03-10T01:08:24.230Z,1.97
2019-03-10T01:11:26.290Z,1.83
2019-03-10T01:14:28.141Z,1.87
2019-03-10T01:17:30.344Z,1.90
2019-03-10T01:20:32.375Z,2.30
2019-03-10T01:23:34.318Z,2.07
2019-03-10T01:26:37.969Z,2.20
2019-03-10T01:29:39.923Z,1.47
2019-03-10T01:33:02.339Z,1.90
2019-03-10T01:36:07.846Z,2.30
2019-03-10T01:39:10.187Z,2.43
2019-03-10T01:42:12.377Z,4.63
2019-03-10T01:45:14.336Z,2.43
2019-03-10T01:48:16.267Z,2.73
2019-03-10T01:51:18.228Z,2.93
2019-03-10T01:54:20.246Z,2.70
2019-03-10T01:57:22.897Z,2.73
2019-03-10T02:00:24.807Z,2.63
2019-03-10T02:03:29.777Z,1.97
2019-03-10T02:06:31.659Z,2.80
2019-03-10T02:09:33.561Z,2.30
2019-03-10T02:12:35.504Z,2.23
2019-03-10T02:15:37.378Z,1.93
2019-03-10T02:18:39.272Z,3.03
2019-03-10T02:21:41.158Z,3.57
2019-03-10T02:24:42.996Z,2.53
2019-03-10T02:27:44.963Z,2.23
2019-03-10T02:30:47.004Z,2.47
2019-03-10T02:33:48.941Z,2.33
2019-03-10T02:36:50.889Z,2.67
2019-03-10T02:39:52.811Z,2.03
2019-03-10T02:42:54.660Z,2.03
2019-03-10T02:45:56.559Z,1.87
2019-03-10T02:48:58.438Z,2.27
2019-03-10T02:52:00.305Z,2.13
2019-03-10T02:55:02.826Z,2.47
2019-03-10T02:58:04.752Z,2.10
2019-03-10T03:01:06.729Z,2.47
2019-03-10T03:04:08.698Z,2.57
2019-03-10T03:07:10.559Z,2.33
2019-03-10T03:10:13.091Z,1.90
2019-03-10T03:13:15.018Z,2.33
2019-03-10T03:16:16.906Z,1.90
2019-03-10T03:19:18.820Z,1.67
2019-03-10T03:22:20.741Z,1.90
2019-03-10T03:25:22.644Z,1.80
2019-03-10T03:28:24.515Z,2.17
2019-03-10T03:31:26.427Z,1.83
2019-03-10T03:34:28.341Z,1.97
2019-03-10T03:37:30.252Z,2.30
2019-03-10T03:40:32.217Z,1.70
2019-03-10T03:43:34.082Z,1.87
2019-03-10T03:46:35.975Z,2.57
2019-03-10T03:49:37.859Z,2.70
2019-03-10T03:52:39.856Z,2.60
2019-03-10T03:55:41.915Z,2.80
2019-03-10T03:58:43.885Z,2.90
2019-03-10T04:01:50.549Z,2.70
2019-03-10T04:04:52.508Z,2.50
2019-03-10T04:07:54.489Z,2.47
2019-03-10T04:10:56.380Z,1.60
2019-03-10T04:13:58.465Z,1.70
2019-03-10T04:17:00.379Z,2.03
2019-03-10T04:20:04.525Z,2.13
2019-03-10T04:23:06.484Z,1.93
2019-03-10T04:26:08.498Z,1.93
2019-03-10T04:29:10.432Z,1.37
2019-03-10T04:32:12.314Z,1.60
2019-03-10T04:35:14.232Z,1.60
2019-03-10T04:38:16.065Z,2.17
2019-03-10T04:41:18.030Z,1.70
2019-03-10T04:44:19.861Z,1.80
2019-03-10T04:47:22.500Z,1.60
2019-03-10T04:50:24.414Z,1.60
2019-03-10T04:53:26.411Z,2.00
2019-03-10T04:56:33.226Z,2.00
2019-03-10T04:59:35.707Z,2.30
2019-03-10T05:02:37.682Z,1.90
2019-03-10T05:05:40.853Z,1.90
2019-03-10T05:08:42.782Z,2.10
2019-03-10T05:11:44.715Z,2.00
2019-03-10T05:14:46.577Z,1.90
2019-03-10T05:17:48.544Z,2.40
2019-03-10T05:20:50.370Z,1.63
2019-03-10T05:23:53.134Z,2.40
2019-03-10T05:26:55.035Z,3.40
2019-03-10T05:29:56.963Z,2.77
2019-03-10T05:32:58.862Z,2.50
2019-03-10T05:36:00.793Z,2.60
2019-03-10T05:39:04.452Z,2.60
2019-03-10T05:42:07.422Z,2.40
2019-03-10T05:45:09.489Z,3.33
2019-03-10T05:48:12.920Z,2.40
2019-03-10T05:51:14.875Z,1.83
2019-03-10T05:54:16.748Z,2.03
2019-03-10T05:57:18.771Z,1.60
2019-03-10T06:00:20.808Z,1.50
2019-03-10T06:03:22.871Z,1.40
2019-03-10T06:06:24.718Z,1.50
2019-03-10T06:09:27.759Z,2.00
2019-03-10T06:12:29.619Z,1.77
2019-03-10T06:15:31.565Z,1.63
2019-03-10T06:18:33.477Z,2.00
2019-03-10T06:21:35.464Z,2.33
2019-03-10T06:24:37.340Z,1.97
2019-03-10T06:27:39.250Z,2.37
2019-03-10T06:30:41.139Z,2.13
2019-03-10T06:33:43.220Z,2.87
2019-03-10T06:36:45.137Z,2.73
2019-03-10T06:39:47.125Z,3.07
2019-03-10T06:42:49.005Z,3.77
2019-03-10T06:45:50.956Z,3.90
2019-03-10T06:48:52.937Z,3.20
2019-03-10T06:51:54.913Z,3.67
2019-03-10T06:54:56.818Z,3.93
2019-03-10T06:57:58.796Z,4.07
2019-03-10T07:01:00.691Z,3.67
2019-03-10T07:04:02.792Z,3.77
2019-03-10T07:07:04.652Z,4.47
2019-03-10T07:10:09.563Z,3.67
2019-03-10T07:13:11.531Z,3.40
2019-03-10T07:16:13.391Z,3.53
2019-03-10T07:19:15.225Z,4.03
2019-03-10T07:22:17.076Z,5.13
2019-03-10T07:25:18.989Z,4.23
2019-03-10T07:28:22.658Z,3.30
2019-03-10T07:31:32.620Z,3.20
2019-03-10T07:34:42.319Z,3.73
2019-03-10T07:37:58.178Z,3.07
2019-03-10T07:41:10.896Z,3.20
2019-03-10T07:44:14.598Z,3.90
2019-03-10T07:47:18.246Z,3.37
2019-03-10T07:50:38.535Z,3.97
2019-03-10T07:53:45.257Z,3.53
2019-03-10T07:56:51.791Z,3.93
2019-03-10T08:00:12.213Z,4.47
2019-03-10T08:03:22.178Z,5.50
2019-03-10T08:06:25.985Z,3.70
2019-03-10T08:09:35.426Z,3.70
2019-03-10T08:12:39.124Z,4.97
2019-03-10T08:15:48.814Z,5.43
2019-03-10T08:19:07.975Z,3.67
2019-03-10T08:22:18.012Z,4.37
2019-03-10T08:25:24.738Z,3.07
2019-03-10T08:28:28.455Z,4.10
2019-03-10T08:31:50.582Z,5.00
2019-03-10T08:34:54.307Z,5.03
2019-03-10T08:38:10.126Z,6.47
2019-03-10T08:41:16.422Z,7.30
2019-03-10T08:44:20.086Z,6.90
2019-03-10T08:47:42.279Z,7.57
2019-03-10T08:50:48.754Z,7.50
2019-03-10T08:53:58.154Z,8.20
2019-03-10T08:57:01.871Z,8.57
2019-03-10T09:00:18.179Z,9.33
2019-03-10T09:03:24.761Z,8.43
2019-03-10T09:06:28.518Z,9.03
2019-03-10T09:09:32.264Z,9.93
2019-03-10T09:12:35.996Z,10.13
2019-03-10T09:15:45.859Z,10.10
2019-03-10T09:18:49.641Z,10.50
2019-03-10T09:22:11.776Z,10.53
2019-03-10T09:25:32.111Z,9.80
2019-03-10T09:28:35.763Z,10.70
2019-03-10T09:31:42.298Z,10.00
2019-03-10T09:34:45.983Z,10.00
2019-03-10T09:37:52.837Z,10.27
2019-03-10T09:41:02.602Z,9.77
2019-03-10T09:44:06.297Z,9.80
2019-03-10T09:47:22.323Z,9.60
2019-03-10T09:50:26.046Z,9.63
2019-03-10T09:53:46.431Z,9.03
2019-03-10T09:57:06.736Z,9.67
2019-03-10T10:00:29.037Z,10.83
2019-03-10T10:03:35.193Z,10.30
2019-03-10T10:06:54.302Z,10.93
2019-03-10T10:10:03.810Z,9.77
2019-03-10T10:13:16.675Z,11.37
2019-03-10T10:16:23.383Z,9.97
2019-03-10T10:19:27.054Z,11.30
2019-03-10T10:22:36.690Z,11.13
2019-03-10T10:25:40.771Z,9.83
2019-03-10T10:29:01.984Z,9.50
2019-03-10T10:32:18.737Z,10.73
2019-03-10T10:35:34.270Z,9.03
2019-03-10T10:38:50.180Z,9.47
2019-03-10T10:41:53.980Z,9.30
2019-03-10T10:45:14.194Z,8.63
2019-03-10T10:48:17.920Z,9.47
2019-03-10T10:51:25.544Z,8.57
2019-03-10T10:54:40.917Z,7.90
2019-03-10T10:57:50.922Z,8.57
2019-03-10T11:01:00.687Z,9.53
2019-03-10T11:04:10.000Z,8.27
2019-03-10T11:07:13.671Z,9.70
2019-03-10T11:10:23.007Z,10.27
2019-03-10T11:13:26.757Z,7.57
2019-03-10T11:16:47.546Z,9.13
2019-03-10T11:19:51.236Z,7.83
2019-03-10T11:22:58.068Z,7.77
2019-03-10T11:26:02.842Z,7.87
2019-03-10T11:29:09.418Z,7.50
2019-03-10T11:32:13.116Z,7.90
2019-03-10T11:35:31.897Z,7.00
2019-03-10T11:38:38.247Z,7.53
2019-03-10T11:41:58.595Z,7.30
2019-03-10T11:45:19.123Z,7.40
2019-03-10T11:48:34.677Z,7.43
2019-03-10T11:51:55.409Z,7.57
2019-03-10T11:55:15.542Z,7.83
2019-03-10T11:58:19.308Z,6.27
2019-03-10T12:01:41.151Z,6.53
2019-03-10T12:05:00.385Z,6.20
2019-03-10T12:08:13.301Z,5.27
2019-03-10T12:11:16.182Z,6.20
2019-03-10T12:14:18.153Z,5.47
2019-03-10T12:17:20.109Z,6.20
2019-03-10T12:20:22.067Z,8.17
2019-03-10T12:23:24.063Z,6.53
2019-03-10T12:26:27.099Z,5.47
2019-03-10T12:29:29.082Z,5.70
2019-03-10T12:32:31.255Z,6.40
2019-03-10T12:35:34.697Z,6.07
2019-03-10T12:38:36.907Z,6.27
2019-03-10T12:41:38.874Z,6.63
2019-03-10T12:44:40.791Z,6.97
2019-03-10T12:47:43.224Z,5.07
2019-03-10T12:50:45.213Z,3.87
2019-03-10T12:53:47.147Z,3.77
2019-03-10T12:56:49.038Z,4.53
2019-03-10T12:59:51.240Z,3.93
2019-03-10T13:02:53.265Z,3.80
2019-03-10T13:05:55.166Z,4.00
2019-03-10T13:08:57.127Z,3.33
2019-03-10T13:11:58.995Z,4.10
2019-03-10T13:15:01.425Z,4.33
2019-03-10T13:18:03.517Z,4.77
2019-03-10T13:21:05.576Z,5.47
2019-03-10T13:24:07.465Z,8.40
2019-03-10T13:27:09.545Z,9.97
2019-03-10T13:30:14.569Z,9.13
2019-03-10T13:33:16.548Z,9.43
2019-03-10T13:36:19.803Z,10.07
2019-03-10T13:39:22.323Z,10.73
2019-03-10T13:42:24.245Z,9.70
2019-03-10T13:45:26.208Z,8.13
2019-03-10T13:48:28.117Z,7.90
2019-03-10T13:51:30.157Z,7.93
2019-03-10T13:54:32.103Z,7.90
2019-03-10T13:57:34.100Z,8.20
2019-03-10T14:00:36.065Z,6.60
2019-03-10T14:03:39.487Z,6.37
2019-03-10T14:06:41.374Z,6.00
2019-03-10T14:09:43.294Z,5.33
2019-03-10T14:12:47.821Z,5.13
2019-03-10T14:15:51.760Z,6.80
2019-03-10T14:18:53.639Z,5.20
2019-03-10T14:21:55.752Z,6.67
2019-03-10T14:24:57.657Z,4.40
2019-03-10T14:27:59.640Z,4.23
2019-03-10T14:31:01.542Z,3.90
2019-03-10T14:34:05.034Z,4.33
2019-03-10T14:37:06.933Z,5.73
2019-03-10T14:40:15.072Z,9.67
2019-03-10T14:43:18.791Z,7.97
2019-03-10T14:46:20.742Z,5.90
2019-03-10T14:49:23.730Z,7.27
2019-03-10T14:52:30.209Z,9.00
2019-03-10T14:55:32.106Z,8.23
2019-03-10T14:58:34.304Z,7.43
2019-03-10T15:01:38.457Z,9.10
2019-03-10T15:04:40.566Z,9.27
2019-03-10T15:07:42.488Z,9.33
2019-03-10T15:10:46.944Z,9.90
2019-03-10T15:13:49.223Z,9.83
2019-03-10T15:16:51.248Z,8.67
2019-03-10T15:19:53.223Z,8.40
2019-03-10T15:22:57.165Z,8.80
2019-03-10T15:26:01.848Z,7.53
2019-03-10T15:29:04.313Z,10.03
2019-03-10T15:32:08.476Z,8.53
2019-03-10T15:35:10.470Z,6.87
2019-03-10T15:38:13.201Z,8.63
2019-03-10T15:41:17.415Z,8.07
2019-03-10T15:44:19.316Z,9.03
2019-03-10T15:47:21.220Z,9.70
2019-03-10T15:50:28.623Z,9.13
2019-03-10T15:53:32.860Z,9.03
2019-03-10T15:56:35.938Z,8.93
2019-03-10T15:59:37.962Z,9.33
2019-03-10T16:02:40.548Z,9.60
2019-03-10T16:05:44.680Z,9.23
2019-03-10T16:08:47.158Z,10.57
2019-03-10T16:11:49.501Z,11.80
2019-03-10T16:14:53.362Z,11.00
2019-03-10T16:17:55.275Z,11.83
2019-03-10T16:20:59.066Z,11.67
2019-03-10T16:24:01.196Z,12.17
2019-03-10T16:27:03.952Z,14.23
2019-03-10T16:30:16.821Z,13.37
2019-03-10T16:33:20.234Z,13.50
2019-03-10T16:36:22.192Z,12.23
2019-03-10T16:39:26.023Z,11.43
2019-03-10T16:42:29.443Z,11.40
2019-03-10T16:45:31.417Z,13.13
2019-03-10T16:48:34.800Z,13.00
2019-03-10T16:51:36.794Z,14.33
2019-03-10T16:54:40.143Z,15.40
2019-03-10T16:57:43.998Z,12.03
2019-03-10T17:00:48.645Z,12.50
2019-03-10T17:03:50.709Z,12.27
2019-03-10T17:06:54.663Z,11.73
2019-03-10T17:09:56.961Z,12.93
2019-03-10T17:13:02.126Z,12.37
2019-03-10T17:16:05.764Z,13.47
2019-03-10T17:19:10.383Z,13.47
2019-03-10T17:22:12.451Z,14.53
2019-03-10T17:25:16.909Z,14.40
2019-03-10T17:28:18.880Z,14.50
2019-03-10T17:31:20.959Z,13.00
2019-03-10T17:34:25.092Z,14.17
2019-03-10T17:37:27.153Z,12.73
2019-03-10T17:40:29.482Z,8.37
2019-03-10T17:43:34.005Z,8.83
2019-03-10T17:46:36.395Z,7.23
2019-03-10T17:49:38.448Z,5.60
2019-03-10T17:52:40.513Z,4.43
2019-03-10T17:55:45.842Z,3.90
2019-03-10T17:58:48.257Z,4.30
2019-03-10T18:01:52.089Z,3.97
2019-03-10T18:04:54.077Z,3.10
2019-03-10T18:07:56.174Z,3.90
2019-03-10T18:10:58.168Z,3.67
2019-03-10T18:14:02.075Z,4.13
2019-03-10T18:17:07.191Z,3.23
2019-03-10T18:20:17.364Z,3.47
2019-03-10T18:23:21.063Z,4.63
2019-03-10T18:26:23.467Z,3.73
2019-03-10T18:29:27.744Z,3.13
2019-03-10T18:32:29.929Z,4.27
2019-03-10T18:35:31.844Z,4.10
2019-03-10T18:38:35.355Z,3.73
2019-03-10T18:41:37.346Z,3.83
2019-03-10T18:44:41.946Z,3.33
2019-03-10T18:47:43.965Z,3.30
2019-03-10T18:50:48.040Z,2.90
2019-03-10T18:53:52.870Z,4.03
2019-03-10T18:56:57.183Z,4.00
2019-03-10T19:00:01.288Z,3.60
2019-03-10T19:03:03.457Z,3.20
2019-03-10T19:06:05.995Z,4.40
2019-03-10T19:09:11.951Z,4.20
2019-03-10T19:12:16.292Z,3.97
2019-03-10T19:15:25.413Z,4.00
2019-03-10T19:18:31.729Z,3.90
2019-03-10T19:21:36.071Z,4.03
2019-03-10T19:24:42.184Z,3.87
2019-03-10T19:27:45.919Z,4.70
2019-03-10T19:30:49.446Z,4.60
2019-03-10T19:33:51.431Z,5.33
2019-03-10T19:36:57.336Z,4.33
2019-03-10T19:40:00.247Z,3.93
2019-03-10T19:43:02.161Z,3.23
2019-03-10T19:46:06.978Z,3.17
2019-03-10T19:49:08.874Z,3.10
2019-03-10T19:52:12.371Z,2.97
2019-03-10T19:55:14.709Z,3.17
2019-03-10T19:58:16.723Z,2.53
2019-03-10T20:01:20.183Z,2.37
2019-03-10T20:04:23.935Z,2.77
2019-03-10T20:07:28.163Z,3.57
2019-03-10T20:10:31.327Z,4.13
2019-03-10T20:13:34.635Z,4.03
2019-03-10T20:16:41.217Z,3.80
2019-03-10T20:19:48.705Z,4.30
2019-03-10T20:22:56.721Z,4.03
2019-03-10T20:26:00.159Z,3.40
2019-03-10T20:29:02.219Z,3.30
2019-03-10T20:32:13.495Z,4.47
2019-03-10T20:35:08.591Z,4.30
2019-03-10T20:38:11.639Z,4.33
2019-03-10T20:41:15.134Z,4.20
2019-03-10T20:44:17.556Z,2.93
2019-03-10T20:47:19.510Z,3.83
2019-03-10T20:50:21.497Z,3.50
2019-03-10T20:53:23.431Z,3.10
2019-03-10T20:56:25.870Z,3.03
2019-03-10T20:59:28.700Z,2.57
2019-03-10T21:02:30.663Z,3.37
2019-03-10T21:05:32.648Z,3.07
2019-03-10T21:08:34.849Z,3.53
2019-03-10T21:11:38.517Z,2.33
2019-03-10T21:14:40.388Z,1.77
2019-03-10T21:17:43.113Z,2.67
2019-03-10T21:20:45.547Z,2.17
2019-03-10T21:23:47.507Z,2.03
2019-03-10T21:26:50.434Z,3.13
2019-03-10T21:29:53.539Z,2.00
2019-03-10T21:32:55.513Z,2.07
2019-03-10T21:35:58.748Z,2.30
2019-03-10T21:39:00.582Z,1.90
2019-03-10T21:42:04.312Z,2.33
2019-03-10T21:45:08.476Z,2.57
2019-03-10T21:48:10.414Z,1.90
2019-03-10T21:51:12.364Z,1.40
2019-03-10T21:54:14.364Z,2.03
2019-03-10T21:57:16.306Z,2.93
2019-03-10T22:00:19.393Z,1.70
2019-03-10T22:03:21.331Z,1.87
2019-03-10T22:06:23.331Z,1.40
2019-03-10T22:09:26.523Z,1.97
2019-03-10T22:12:28.573Z,1.63
2019-03-10T22:15:40.712Z,2.03
2019-03-10T22:18:34.439Z,2.00
2019-03-10T22:21:36.416Z,2.00
2019-03-10T22:24:38.555Z,1.80
2019-03-10T22:27:40.479Z,2.50
2019-03-10T22:30:42.421Z,1.70
2019-03-10T22:33:44.349Z,2.40
2019-03-10T22:36:46.253Z,1.67
2019-03-10T22:39:48.186Z,3.17
2019-03-10T22:42:51.321Z,1.90
2019-03-10T22:45:53.271Z,2.20
2019-03-10T22:48:55.179Z,2.87
2019-03-10T22:51:57.227Z,1.33
2019-03-10T22:54:59.195Z,2.00
2019-03-10T22:58:01.106Z,2.37
2019-03-10T23:01:03.374Z,1.60
2019-03-10T23:04:05.870Z,1.73
2019-03-10T23:07:07.779Z,1.30
2019-03-10T23:10:12.574Z,1.53
2019-03-10T23:13:14.630Z,1.40
2019-03-10T23:16:18.388Z,1.53
2019-03-10T23:19:20.407Z,1.70
2019-03-10T23:22:22.353Z,1.77
2019-03-10T23:25:24.278Z,1.50
2019-03-10T23:28:26.161Z,1.17
2019-03-10T23:31:28.223Z,0.90
2019-03-10T23:34:30.155Z,1.03
2019-03-10T23:37:32.068Z,1.07
2019-03-10T23:40:34.017Z,1.10
2019-03-10T23:43:35.939Z,1.00
2019-03-10T23:46:38.235Z,0.90
2019-03-10T23:49:40.144Z,1.17
2019-03-10T23:52:42.080Z,1.33
2019-03-10T23:55:43.933Z,1.27
2019-03-10T23:58:45.862Z,1.30
